createdAt,value
2018-03-01T00:00:54.166Z,20.00
2018-03-01T00:03:21.569Z,19.92
2018-03-01T00:05:48.962Z,20.00
2018-03-01T00:08:16.325Z,20.05
2018-03-01T00:10:43.706Z,20.05
2018-03-01T00:13:11.067Z,19.96
2018-03-01T00:15:38.518Z,19.88
2018-03-01T00:18:05.933Z,19.89
2018-03-01T00:20:33.309Z,19.99
2018-03-01T00:23:00.702Z,19.95
2018-03-01T00:25:28.077Z,20.03
2018-03-01T00:27:55.419Z,20.04
2018-03-01T00:30:22.862Z,20.02
2018-03-01T00:32:50.239Z,20.02
2018-03-01T00:35:17.573Z,20.03
2018-03-01T00:37:44.964Z,19.94
2018-03-01T00:40:12.355Z,20.01
2018-03-01T00:42:39.732Z,19.93
2018-03-01T00:45:07.097Z,20.03
2018-03-01T00:47:34.487Z,20.02
2018-03-01T00:50:01.828Z,20.02
2018-03-01T00:52:29.235Z,19.98
2018-03-01T00:54:56.615Z,19.94
2018-03-01T00:57:23.973Z,20.06
2018-03-01T00:59:51.369Z,20.06
2018-03-01T01:02:18.769Z,20.02
2018-03-01T01:04:46.091Z,20.04
2018-03-01T01:07:13.471Z,20.01
2018-03-01T01:09:40.821Z,19.93
2018-03-01T01:12:08.317Z,19.94
2018-03-01T01:14:35.672Z,19.94
2018-03-01T01:17:03.022Z,19.93
2018-03-01T01:19:30.479Z,19.99
2018-03-01T01:21:57.863Z,20.03
2018-03-01T01:24:25.211Z,19.99
2018-03-01T01:26:52.606Z,19.92
2018-03-01T01:29:19.958Z,19.94
2018-03-01T01:31:47.373Z,19.94
2018-03-01T01:34:14.729Z,19.93
2018-03-01T01:36:42.084Z,19.93
2018-03-01T01:39:09.468Z,19.97
2018-03-01T01:41:36.841Z,20.02
2018-03-01T01:44:04.216Z,20.00
2018-03-01T01:46:31.566Z,19.87
2018-03-01T01:48:58.957Z,19.90
2018-03-01T01:51:26.315Z,19.86
2018-03-01T01:53:53.663Z,19.95
2018-03-01T01:56:21.017Z,19.97
2018-03-01T01:58:48.371Z,19.96
2018-03-01T02:01:15.737Z,19.92
2018-03-01T02:03:43.082Z,19.96
2018-03-01T02:06:10.472Z,19.86
2018-03-01T02:08:37.868Z,19.83
2018-03-01T02:11:05.231Z,19.92
2018-03-01T02:13:32.681Z,19.95
2018-03-01T02:16:00.072Z,19.90
2018-03-01T02:18:27.514Z,19.98
2018-03-01T02:20:54.872Z,19.97
2018-03-01T02:23:22.226Z,19.83
2018-03-01T02:25:49.618Z,19.84
2018-03-01T02:28:17.014Z,19.90
2018-03-01T02:30:44.375Z,19.95
2018-03-01T02:33:11.731Z,19.99
2018-03-01T02:35:39.085Z,19.94
2018-03-01T02:38:06.434Z,19.89
2018-03-01T02:40:33.793Z,19.97
2018-03-01T02:43:01.172Z,19.99
2018-03-01T02:45:28.545Z,19.91
2018-03-01T02:47:55.927Z,19.99
2018-03-01T02:50:23.310Z,19.96
2018-03-01T02:52:50.698Z,20.03
2018-03-01T02:55:18.086Z,20.01
2018-03-01T02:57:45.438Z,20.01
2018-03-01T03:00:12.796Z,19.95
2018-03-01T03:02:40.265Z,20.03
2018-03-01T03:05:07.631Z,19.95
2018-03-01T03:07:35.030Z,20.03
2018-03-01T03:10:02.444Z,19.99
2018-03-01T03:12:29.795Z,20.00
2018-03-01T03:14:57.238Z,19.99
2018-03-01T03:17:24.765Z,20.02
2018-03-01T03:19:52.159Z,20.00
2018-03-01T03:22:19.513Z,20.07
2018-03-01T03:24:46.877Z,20.00
2018-03-01T03:27:14.221Z,20.03
2018-03-01T03:29:41.589Z,19.97
2018-03-01T03:32:10.607Z,20.02
2018-03-01T03:34:37.971Z,20.10
2018-03-01T03:37:05.371Z,20.05
2018-03-01T03:39:32.726Z,20.02
2018-03-01T03:42:00.116Z,20.04
2018-03-01T03:44:27.466Z,20.02
2018-03-01T03:46:54.848Z,19.92
2018-03-01T03:49:22.236Z,20.06
2018-03-01T03:51:49.746Z,19.99
2018-03-01T03:54:17.116Z,20.02
2018-03-01T03:56:44.481Z,20.12
2018-03-01T03:59:11.990Z,20.08
2018-03-01T04:01:39.382Z,20.10
2018-03-01T04:04:06.845Z,20.05
2018-03-01T04:06:34.301Z,20.02
2018-03-01T04:09:01.775Z,20.02
2018-03-01T04:11:29.127Z,20.06
2018-03-01T04:13:56.480Z,20.15
2018-03-01T04:16:23.858Z,20.03
2018-03-01T04:18:51.312Z,20.08
2018-03-01T04:21:18.665Z,20.12
2018-03-01T04:23:46.070Z,20.13
2018-03-01T04:26:13.421Z,20.23
2018-03-01T04:28:40.837Z,20.03
2018-03-01T04:31:08.194Z,20.08
2018-03-01T04:33:35.698Z,20.15
2018-03-01T04:36:03.311Z,20.22
2018-03-01T04:38:30.739Z,20.22
2018-03-01T04:40:58.104Z,20.35
2018-03-01T04:43:25.510Z,20.46
2018-03-01T04:45:52.894Z,20.45
2018-03-01T04:48:20.262Z,20.39
2018-03-01T04:50:47.616Z,20.45
2018-03-01T04:53:14.964Z,20.44
2018-03-01T04:55:43.055Z,20.51
2018-03-01T04:58:10.644Z,20.41
2018-03-01T05:00:37.994Z,20.43
2018-03-01T05:03:05.836Z,20.39
2018-03-01T05:05:33.287Z,20.38
2018-03-01T05:08:00.652Z,20.48
2018-03-01T05:10:28.115Z,20.31
2018-03-01T05:12:56.519Z,20.38
2018-03-01T05:15:23.941Z,20.35
2018-03-01T05:17:51.389Z,20.39
2018-03-01T05:20:18.747Z,20.40
2018-03-01T05:22:46.162Z,20.53
2018-03-01T05:25:13.872Z,20.53
2018-03-01T05:27:41.260Z,20.50
2018-03-01T05:30:08.602Z,20.66
2018-03-01T05:32:36.959Z,20.57
2018-03-01T05:35:04.327Z,20.59
2018-03-01T05:37:31.734Z,20.70
2018-03-01T05:39:59.114Z,20.75
2018-03-01T05:42:26.564Z,20.85
2018-03-01T05:44:53.978Z,20.87
2018-03-01T05:47:21.475Z,20.93
2018-03-01T05:49:48.871Z,20.97
2018-03-01T05:52:16.298Z,21.15
2018-03-01T05:54:43.712Z,21.13
2018-03-01T05:57:11.170Z,21.30
2018-03-01T05:59:38.523Z,21.31
2018-03-01T06:02:06.071Z,21.28
2018-03-01T06:07:09.224Z,21.44
2018-03-01T06:09:37.078Z,21.46
2018-03-01T06:12:04.527Z,21.53
2018-03-01T06:14:32.056Z,21.51
2018-03-01T06:16:59.734Z,21.62
2018-03-01T06:19:28.119Z,21.70
2018-03-01T06:21:55.563Z,21.67
2018-03-01T06:24:35.946Z,21.73
2018-03-01T06:27:03.448Z,21.66
2018-03-01T06:29:30.835Z,21.85
2018-03-01T06:31:58.338Z,21.80
2018-03-01T06:34:27.399Z,21.81
2018-03-01T06:36:55.685Z,21.97
2018-03-01T06:39:23.266Z,22.04
2018-03-01T06:41:50.711Z,21.99
2018-03-01T06:44:19.110Z,22.06
2018-03-01T06:46:48.129Z,21.95
2018-03-01T06:49:17.458Z,22.08
2018-03-01T06:51:46.358Z,22.13
2018-03-01T06:54:13.728Z,22.21
2018-03-01T06:56:41.565Z,22.19
2018-03-01T06:59:09.043Z,22.22
2018-03-01T07:01:36.672Z,22.31
2018-03-01T07:04:04.796Z,22.19
2018-03-01T07:06:32.270Z,22.36
2018-03-01T07:08:59.642Z,22.43
2018-03-01T07:11:27.213Z,22.38
2018-03-01T07:13:55.079Z,22.47
2018-03-01T07:16:22.488Z,22.46
2018-03-01T07:18:49.911Z,22.44
2018-03-01T07:21:17.523Z,22.43
2018-03-01T07:31:38.200Z,22.55
2018-03-01T07:34:05.712Z,22.56
2018-03-01T07:36:34.629Z,22.56
2018-03-01T07:39:06.238Z,22.62
2018-03-01T07:41:34.405Z,22.72
2018-03-01T07:44:01.895Z,22.75
2018-03-01T07:46:29.342Z,22.67
2018-03-01T07:48:58.690Z,22.70
2018-03-01T07:51:27.192Z,22.80
2018-03-01T07:53:54.732Z,22.86
2018-03-01T07:56:22.344Z,22.79
2018-03-01T07:58:51.753Z,22.82
2018-03-01T08:01:19.238Z,22.80
2018-03-01T08:03:49.569Z,22.92
2018-03-01T08:06:17.341Z,22.85
2018-03-01T08:08:46.942Z,23.01
2018-03-01T08:11:15.242Z,23.01
2018-03-01T08:13:43.659Z,23.07
2018-03-01T08:16:11.416Z,23.09
2018-03-01T08:18:39.128Z,22.95
2018-03-01T08:21:06.706Z,22.96
2018-03-01T08:23:34.136Z,23.11
2018-03-01T08:26:02.098Z,23.17
2018-03-01T08:28:29.922Z,22.96
2018-03-01T08:30:57.871Z,23.09
2018-03-01T08:33:29.317Z,23.15
2018-03-01T08:35:56.936Z,23.05
2018-03-01T08:54:11.677Z,23.12
2018-03-01T08:56:39.283Z,23.25
2018-03-01T08:59:07.686Z,23.18
2018-03-01T09:01:35.330Z,23.15
2018-03-01T09:04:03.392Z,23.22
2018-03-01T09:06:31.268Z,23.12
2018-03-01T09:08:58.807Z,23.21
2018-03-01T09:11:26.465Z,23.16
2018-03-01T09:13:53.844Z,23.21
2018-03-01T09:16:21.637Z,23.21
2018-03-01T09:18:49.084Z,23.15
2018-03-01T09:21:17.751Z,23.15
2018-03-01T09:23:46.379Z,23.14
2018-03-01T09:26:13.821Z,23.17
2018-03-01T09:28:41.403Z,23.18
2018-03-01T09:31:09.179Z,23.13
2018-03-01T09:33:36.590Z,23.11
2018-03-01T09:36:04.079Z,23.05
2018-03-01T09:38:35.656Z,22.96
2018-03-01T09:41:03.189Z,23.12
2018-03-01T09:43:30.555Z,23.11
2018-03-01T09:45:58.283Z,23.17
2018-03-01T09:48:26.166Z,23.22
2018-03-01T09:51:00.833Z,23.12
2018-03-01T09:53:29.163Z,23.05
2018-03-01T09:55:56.608Z,23.08
2018-03-01T09:58:24.038Z,23.04
2018-03-01T10:00:54.942Z,23.04
2018-03-01T10:03:22.401Z,23.02
2018-03-01T10:05:50.921Z,22.97
2018-03-01T10:08:19.879Z,23.07
2018-03-01T10:10:54.489Z,23.11
2018-03-01T10:13:22.298Z,23.13
2018-03-01T10:15:53.163Z,23.08
2018-03-01T10:18:21.197Z,22.93
2018-03-01T10:20:48.772Z,23.27
2018-03-01T10:23:16.884Z,23.10
2018-03-01T10:25:45.046Z,23.14
2018-03-01T10:28:12.748Z,23.23
2018-03-01T10:30:54.009Z,22.99
2018-03-01T10:33:22.919Z,23.12
2018-03-01T10:35:50.451Z,23.10
2018-03-01T10:38:17.864Z,23.08
2018-03-01T10:40:45.407Z,23.15
2018-03-01T10:43:12.886Z,23.18
2018-03-01T10:45:40.698Z,23.09
2018-03-01T10:48:08.394Z,23.16
2018-03-01T10:50:36.231Z,23.13
2018-03-01T10:53:03.996Z,23.30
2018-03-01T10:55:31.652Z,23.20
2018-03-01T10:58:02.042Z,23.17
2018-03-01T11:00:33.248Z,23.27
2018-03-01T11:03:01.306Z,23.23
2018-03-01T11:05:29.176Z,23.32
2018-03-01T11:07:58.084Z,23.36
2018-03-01T11:10:34.488Z,23.37
2018-03-01T11:13:02.335Z,23.16
2018-03-01T11:15:31.370Z,23.38
2018-03-01T11:18:00.103Z,23.38
2018-03-01T11:20:27.786Z,23.39
2018-03-01T11:22:55.383Z,23.33
2018-03-01T11:25:22.789Z,23.30
2018-03-01T11:27:59.414Z,23.39
2018-03-01T11:43:59.900Z,23.57
2018-03-01T11:46:27.414Z,23.51
2018-03-01T11:48:55.761Z,23.39
2018-03-01T11:51:23.228Z,23.56
2018-03-01T11:53:50.807Z,23.54
2018-03-01T11:56:18.371Z,23.56
2018-03-01T11:58:49.996Z,23.55
2018-03-01T12:01:17.891Z,23.61
2018-03-01T12:03:45.325Z,23.63
2018-03-01T12:06:13.088Z,23.69
2018-03-01T12:08:41.563Z,23.74
2018-03-01T12:11:10.185Z,23.70
2018-03-01T12:13:37.903Z,23.74
2018-03-01T12:16:05.794Z,23.74
2018-03-01T12:18:33.201Z,23.76
2018-03-01T12:21:10.584Z,23.80
2018-03-01T12:23:41.462Z,23.83
2018-03-01T12:26:08.996Z,23.90
2018-03-01T12:28:36.607Z,23.71
2018-03-01T12:31:04.301Z,23.79
2018-03-01T12:33:32.219Z,23.77
2018-03-01T12:36:03.946Z,23.78
2018-03-01T12:38:33.576Z,23.78
2018-03-01T12:41:01.196Z,23.76
2018-03-01T12:43:28.731Z,23.66
2018-03-01T12:45:56.760Z,23.77
2018-03-01T12:48:24.551Z,23.94
2018-03-01T12:50:52.123Z,23.78
2018-03-01T12:53:19.521Z,23.76
2018-03-01T12:55:47.632Z,23.85
2018-03-01T12:58:16.104Z,23.73
2018-03-01T13:00:50.067Z,23.72
2018-03-01T13:03:17.590Z,23.92
2018-03-01T13:05:51.533Z,23.79
2018-03-01T13:08:19.135Z,23.77
2018-03-01T13:17:32.556Z,23.75
2018-03-01T13:37:19.968Z,23.57
2018-03-01T13:39:59.318Z,23.57
2018-03-01T13:42:41.792Z,23.48
2018-03-01T13:45:24.049Z,23.58
2018-03-01T13:48:09.226Z,23.58
2018-03-01T13:51:01.071Z,23.51
2018-03-01T13:53:48.941Z,23.55
2018-03-01T13:56:31.941Z,23.55
2018-03-01T13:59:08.404Z,23.48
2018-03-01T14:01:36.063Z,23.58
2018-03-01T14:04:03.511Z,23.51
2018-03-01T14:06:31.783Z,23.49
2018-03-01T14:09:01.647Z,23.53
2018-03-01T14:11:30.159Z,23.37
2018-03-01T14:13:58.406Z,23.53
2018-03-01T14:16:28.358Z,23.52
2018-03-01T14:18:55.868Z,23.43
2018-03-01T14:21:23.276Z,23.52
2018-03-01T14:23:50.974Z,23.51
2018-03-01T14:26:22.285Z,23.49
2018-03-01T14:28:51.351Z,23.53
2018-03-01T14:31:28.314Z,23.49
2018-03-01T14:33:56.110Z,23.58
2018-03-01T14:36:23.527Z,23.52
2018-03-01T14:38:55.328Z,23.41
2018-03-01T14:41:23.486Z,23.47
2018-03-01T14:43:51.638Z,23.58
2018-03-01T14:46:19.604Z,23.52
2018-03-01T14:48:47.145Z,23.44
2018-03-01T14:51:14.565Z,23.53
2018-03-01T14:53:42.452Z,23.48
2018-03-01T14:56:10.020Z,23.63
2018-03-01T14:58:37.780Z,23.34
2018-03-01T15:01:05.569Z,23.38
2018-03-01T15:03:33.017Z,23.34
2018-03-01T15:06:01.541Z,23.37
2018-03-01T15:08:29.014Z,23.40
2018-03-01T15:11:04.077Z,23.45
2018-03-01T15:13:31.554Z,23.32
2018-03-01T15:15:58.946Z,23.40
2018-03-01T15:18:26.356Z,23.25
2018-03-01T15:32:32.256Z,23.38
2018-03-01T15:34:59.681Z,23.29
2018-03-01T15:37:27.721Z,23.27
2018-03-01T15:39:55.113Z,23.20
2018-03-01T15:42:22.604Z,23.29
2018-03-01T15:44:50.005Z,23.22
2018-03-01T15:47:17.384Z,23.18
2018-03-01T15:49:45.047Z,23.21
2018-03-01T15:52:12.574Z,23.21
2018-03-01T15:54:40.287Z,23.09
2018-03-01T15:57:07.797Z,23.01
2018-03-01T15:59:43.924Z,23.01
2018-03-01T16:02:13.292Z,23.05
2018-03-01T16:04:40.905Z,23.14
2018-03-01T16:07:08.386Z,22.96
2018-03-01T16:09:35.830Z,22.96
2018-03-01T16:12:03.779Z,22.87
2018-03-01T16:14:31.247Z,22.92
2018-03-01T16:16:58.663Z,22.86
2018-03-01T16:19:27.070Z,22.74
2018-03-01T16:21:54.510Z,22.78
2018-03-01T16:24:21.920Z,22.97
2018-03-01T16:26:49.351Z,22.85
2018-03-01T16:29:26.292Z,22.79
2018-03-01T16:31:53.707Z,22.82
2018-03-01T16:34:21.115Z,22.86
2018-03-01T16:36:48.482Z,22.71
2018-03-01T16:39:15.960Z,22.63
2018-03-01T16:41:44.441Z,22.71
2018-03-01T16:44:11.845Z,22.71
2018-03-01T16:46:39.290Z,22.71
2018-03-01T16:49:07.294Z,22.75
2018-03-01T16:51:34.745Z,22.66
2018-03-01T16:54:02.159Z,22.67
2018-03-01T16:56:29.639Z,22.75
2018-03-01T17:01:34.902Z,22.66
2018-03-01T17:04:02.312Z,22.60
2018-03-01T17:06:29.751Z,22.65
2018-03-01T17:08:57.334Z,22.74
2018-03-01T17:11:24.784Z,22.61
2018-03-01T17:19:15.418Z,22.50
2018-03-01T17:21:42.810Z,22.54
2018-03-01T17:24:10.328Z,22.46
2018-03-01T17:26:37.708Z,22.40
2018-03-01T17:29:05.378Z,22.48
2018-03-01T17:31:32.744Z,22.40
2018-03-01T17:34:00.227Z,22.40
2018-03-01T17:36:27.640Z,22.44
2018-03-01T17:38:55.045Z,22.30
2018-03-01T17:41:22.484Z,22.35
2018-03-01T17:43:49.875Z,22.29
2018-03-01T17:46:17.320Z,22.33
2018-03-01T17:48:44.781Z,22.37
2018-03-01T17:51:12.133Z,22.21
2018-03-01T17:53:39.559Z,22.32
2018-03-01T17:56:07.005Z,22.26
2018-03-01T17:58:35.192Z,22.26
2018-03-01T18:01:02.565Z,22.11
2018-03-01T18:03:31.534Z,22.24
2018-03-01T18:05:58.924Z,22.18
2018-03-01T18:08:26.301Z,22.24
2018-03-01T18:10:53.680Z,22.10
2018-03-01T18:13:21.167Z,22.06
2018-03-01T18:15:48.701Z,22.20
2018-03-01T18:18:16.055Z,22.09
2018-03-01T18:20:50.980Z,22.06
2018-03-01T18:23:18.378Z,22.08
2018-03-01T18:25:45.747Z,22.01
2018-03-01T18:28:13.096Z,22.08
2018-03-01T18:50:12.617Z,21.97
2018-03-01T18:52:40.287Z,21.96
2018-03-01T18:55:07.720Z,21.86
2018-03-01T18:57:35.311Z,21.96
2018-03-01T19:00:02.658Z,21.90
2018-03-01T19:02:30.048Z,21.85
2018-03-01T19:04:57.505Z,21.90
2018-03-01T19:07:24.957Z,21.87
2018-03-01T19:09:52.449Z,21.80
2018-03-01T19:12:19.862Z,21.89
2018-03-01T19:14:47.232Z,21.77
2018-03-01T19:17:14.701Z,21.92
2018-03-01T19:19:42.090Z,21.89
2018-03-01T19:22:09.479Z,21.76
2018-03-01T19:24:37.052Z,21.80
2018-03-01T19:27:04.489Z,21.71
2018-03-01T19:29:31.851Z,21.72
2018-03-01T19:31:59.354Z,21.60
2018-03-01T19:34:26.747Z,21.59
2018-03-01T19:36:54.108Z,21.53
2018-03-01T19:39:21.471Z,21.55
2018-03-01T19:41:48.833Z,21.56
2018-03-01T19:44:16.224Z,21.47
2018-03-01T19:46:43.751Z,21.40
2018-03-01T19:49:11.254Z,21.27
2018-03-01T19:56:53.984Z,21.35
2018-03-01T19:59:21.430Z,21.32
2018-03-01T20:01:48.849Z,21.40
2018-03-01T20:04:16.199Z,21.40
2018-03-01T20:06:43.595Z,21.41
2018-03-01T20:09:11.003Z,21.22
2018-03-01T20:11:38.435Z,21.35
2018-03-01T20:14:05.886Z,21.23
2018-03-01T20:16:33.263Z,21.19
2018-03-01T20:19:00.697Z,21.09
2018-03-01T20:21:28.346Z,21.20
2018-03-01T20:23:55.708Z,21.16
2018-03-01T20:26:23.096Z,21.15
2018-03-01T20:28:50.494Z,21.17
2018-03-01T20:31:17.878Z,21.14
2018-03-01T20:33:45.234Z,21.06
2018-03-01T20:36:12.610Z,20.98
2018-03-01T20:38:40.040Z,20.97
2018-03-01T20:41:07.460Z,21.05
2018-03-01T20:43:34.820Z,21.01
2018-03-01T20:46:02.210Z,20.99
2018-03-01T20:48:29.593Z,20.99
2018-03-01T20:50:57.095Z,20.96
2018-03-01T20:53:24.703Z,21.04
2018-03-01T20:55:52.102Z,20.95
2018-03-01T20:58:19.496Z,20.79
2018-03-01T21:00:54.495Z,20.95
2018-03-01T21:03:21.860Z,20.99
2018-03-01T21:05:49.248Z,20.89
2018-03-01T21:08:16.635Z,20.87
2018-03-01T21:10:43.982Z,20.92
2018-03-01T21:13:11.338Z,20.80
2018-03-01T21:15:38.715Z,20.88
2018-03-01T21:18:06.105Z,20.81
2018-03-01T21:20:33.560Z,20.82
2018-03-01T21:23:01.184Z,20.85
2018-03-01T21:25:28.568Z,20.82
2018-03-01T21:27:55.972Z,20.77
2018-03-01T21:30:30.376Z,20.71
2018-03-01T21:32:57.858Z,20.76
2018-03-01T21:35:25.238Z,20.76
2018-03-01T21:37:52.635Z,20.63
2018-03-01T21:40:20.043Z,20.73
2018-03-01T21:42:47.482Z,20.66
2018-03-01T21:45:14.878Z,20.69
2018-03-01T21:47:42.232Z,20.65
2018-03-01T21:53:09.740Z,20.72
2018-03-01T21:55:37.162Z,20.75
2018-03-01T21:58:04.563Z,20.67
2018-03-01T22:15:03.606Z,20.55
2018-03-01T22:17:30.984Z,20.60
2018-03-01T22:19:58.348Z,20.60
2018-03-01T22:22:25.704Z,20.65
2018-03-01T22:24:53.177Z,20.59
2018-03-01T22:27:20.578Z,20.67
2018-03-01T22:29:48.002Z,20.58
2018-03-01T22:32:15.570Z,20.51
2018-03-01T22:34:42.921Z,20.63
2018-03-01T22:37:10.376Z,20.51
2018-03-01T22:39:37.729Z,20.59
2018-03-01T22:42:05.181Z,20.51
2018-03-01T22:44:32.569Z,20.58
2018-03-01T22:46:59.918Z,20.52
2018-03-01T22:49:27.382Z,20.46
2018-03-01T22:51:54.729Z,20.59
2018-03-01T22:59:45.410Z,20.50
2018-03-01T23:02:12.764Z,20.50
2018-03-01T23:04:40.164Z,20.46
2018-03-01T23:07:07.512Z,20.50
2018-03-01T23:09:34.915Z,20.57
2018-03-01T23:12:02.258Z,20.49
2018-03-01T23:14:32.667Z,20.49
2018-03-01T23:17:00.020Z,20.51
2018-03-01T23:19:27.484Z,20.46
2018-03-01T23:21:54.922Z,20.44
2018-03-01T23:24:22.276Z,20.51
2018-03-01T23:26:49.619Z,20.50
2018-03-01T23:39:55.620Z,20.43
2018-03-01T23:42:23.007Z,20.46
2018-03-01T23:44:50.373Z,20.41
2018-03-01T23:47:17.747Z,20.51
